Time;durP1;ratioP1;P1;durP2;ratioP2;P2;SDS_P1;SDS_P2;PMS_P1;PMS_P2;Temp;Humidity;BMP_temperature;BMP_pressure;BME280_temperature;BME280_humidity;BME280_pressure;Samples;Min_cycle;Max_cycle;Signal;HPM_P1;HPM_P2
2023/03/17 00:01:15;;;;;;;10.50;4.80;;;;;;;8.71;51.96;101950.84;4893085;29;20487;-77
2023/03/17 00:03:44;;;;;;;5.80;3.78;;;;;;;8.73;51.69;101948.94;4912145;28;20428;-78
2023/03/17 00:06:17;;;;;;;7.13;4.28;;;;;;;8.50;51.97;101947.69;4951451;28;20566;-80
2023/03/17 00:08:53;;;;;;;7.90;4.15;;;;;;;8.46;52.18;101955.88;4945814;28;20311;-77
2023/03/17 00:11:20;;;;;;;5.88;3.78;;;;;;;8.01;51.96;101887.00;4927611;28;20476;-79
2023/03/17 00:13:47;;;;;;;8.98;4.28;;;;;;;8.44;52.85;101952.47;4929841;28;20038;-79
2023/03/17 00:16:20;;;;;;;6.53;3.60;;;;;;;8.56;52.33;101941.16;4934556;28;20440;-78
2023/03/17 00:18:54;;;;;;;5.72;3.85;;;;;;;8.56;52.64;101904.94;4919832;28;20484;-79
2023/03/17 00:21:34;;;;;;;7.05;3.78;;;;;;;8.81;50.98;101940.56;4934105;28;20465;-79
2023/03/17 00:24:10;;;;;;;5.38;3.75;;;;;;;8.75;51.49;101928.53;4943505;28;20305;-77
2023/03/17 00:26:53;;;;;;;8.30;3.10;;;;;;;8.85;51.35;101943.88;4949946;28;20178;-78
2023/03/17 00:29:20;;;;;;;10.25;3.65;;;;;;;8.75;51.53;101915.28;4938396;28;20257;-77
2023/03/17 00:31:58;;;;;;;5.55;3.40;;;;;;;8.68;50.14;101913.09;4924641;28;20418;-78
2023/03/17 00:34:26;;;;;;;6.75;3.28;;;;;;;8.56;51.70;101867.03;4953035;28;20054;-80
2023/03/17 00:36:54;;;;;;;12.13;3.58;;;;;;;8.95;50.67;101937.06;4939638;28;20506;-78
2023/03/17 00:39:23;;;;;;;5.18;3.30;;;;;;;9.32;55.60;101942.75;4938335;28;20321;-79
2023/03/17 00:41:52;;;;;;;6.72;3.03;;;;;;;9.25;50.67;101933.47;4945345;28;20054;-79
2023/03/17 00:44:19;;;;;;;5.18;3.83;;;;;;;9.24;50.91;101931.78;4924610;28;20055;-79
2023/03/17 00:46:50;;;;;;;7.57;3.65;;;;;;;9.02;49.92;101925.16;4917729;29;20051;-79
2023/03/17 00:49:32;;;;;;;5.93;3.40;;;;;;;8.93;50.07;101934.53;4928401;28;20141;-78
2023/03/17 00:52:00;;;;;;;6.35;3.95;;;;;;;8.81;50.20;101934.41;4927470;28;20313;-76
2023/03/17 00:54:35;;;;;;;9.50;3.53;;;;;;;8.67;50.49;101927.31;4919838;28;20547;-78
2023/03/17 00:57:02;;;;;;;4.93;3.42;;;;;;;8.62;50.41;101916.97;4907352;28;20057;-79
2023/03/17 00:59:43;;;;;;;5.13;3.65;;;;;;;8.63;50.56;101931.91;4924855;28;20395;-79
2023/03/17 01:02:17;;;;;;;3.55;2.53;;;;;;;8.60;50.70;101939.19;4949607;28;20066;-76
2023/03/17 01:04:44;;;;;;;4.90;3.42;;;;;;;8.21;51.41;101904.38;4940100;28;20052;-76
2023/03/17 01:07:29;;;;;;;4.70;3.30;;;;;;;8.36;50.86;101942.31;4941637;28;20046;-80
2023/03/17 01:10:00;;;;;;;6.63;3.13;;;;;;;8.27;51.27;101937.53;4962902;28;20050;-78
2023/03/17 01:12:26;;;;;;;4.75;3.20;;;;;;;8.25;51.36;101939.41;4940248;28;20326;-78
2023/03/17 01:14:53;;;;;;;4.53;3.15;;;;;;;8.09;51.33;101921.78;4946105;28;20074;-77
2023/03/17 01:17:25;;;;;;;6.72;3.40;;;;;;;8.13;51.62;101930.38;4927044;28;20054;-79
2023/03/17 01:19:56;;;;;;;4.20;3.03;;;;;;;8.01;52.39;101915.22;4938544;28;20433;-79
2023/03/17 01:22:29;;;;;;;4.97;3.10;;;;;;;8.11;52.01;101937.59;4926589;28;20046;-76
2023/03/17 01:24:59;;;;;;;5.93;2.75;;;;;;;7.98;51.45;101923.34;4941876;28;20786;-79
2023/03/17 01:27:26;;;;;;;5.47;3.33;;;;;;;7.93;51.29;101932.38;4936278;28;20060;-78
2023/03/17 01:29:55;;;;;;;10.55;3.20;;;;;;;7.82;51.62;101916.28;4940070;28;20320;-77
2023/03/17 01:32:22;;;;;;;10.15;2.97;;;;;;;7.97;51.72;101933.06;4932799;28;20480;-78
2023/03/17 01:35:16;;;;;;;7.55;4.00;;;;;;;7.87;51.93;101911.59;4944897;28;20428;-76
2023/03/17 01:37:45;;;;;;;10.15;3.42;;;;;;;7.98;52.42;101928.63;4946426;28;20259;-81
2023/03/17 01:40:16;;;;;;;11.75;4.28;;;;;;;7.90;52.11;101931.72;4934725;28;20137;-80
2023/03/17 01:42:49;;;;;;;10.15;3.25;;;;;;;7.63;51.84;101903.25;4954310;28;20357;-80
2023/03/17 01:46:00;;;;;;;9.00;3.50;;;;;;;7.70;52.53;101923.09;4957051;28;20356;-78
2023/03/17 01:48:52;;;;;;;6.38;3.33;;;;;;;7.72;53.18;101912.47;4924040;28;20384;-77
2023/03/17 01:52:08;;;;;;;7.22;3.33;;;;;;;7.87;52.66;101900.16;4914965;28;20101;-78
2023/03/17 01:54:57;;;;;;;22.92;4.13;;;;;;;7.89;51.96;101909.72;4898460;28;20055;-78
2023/03/17 01:57:58;;;;;;;10.00;3.25;;;;;;;6.88;54.30;101717.25;4944032;28;20047;-81
2023/03/17 02:00:25;;;;;;;9.57;3.38;;;;;;;7.96;52.79;101896.13;4900038;28;20047;-79
2023/03/17 02:02:57;;;;;;;11.73;3.47;;;;;;;8.01;52.81;101923.16;4939679;28;20755;-78
2023/03/17 02:05:27;;;;;;;12.38;4.13;;;;;;;7.77;52.63;101896.31;4948222;28;21122;-78
2023/03/17 02:07:55;;;;;;;13.07;3.92;;;;;;;7.68;52.87;101908.28;4947723;28;20546;-80
2023/03/17 02:10:23;;;;;;;19.00;3.85;;;;;;;7.59;52.63;101911.44;4926837;28;20321;-78
2023/03/17 02:12:54;;;;;;;8.43;4.45;;;;;;;7.51;53.16;101913.66;4908668;28;20552;-78
2023/03/17 02:15:22;;;;;;;10.30;4.10;;;;;;;7.35;53.67;101914.47;4932727;28;20766;-76
2023/03/17 02:17:58;;;;;;;6.97;3.53;;;;;;;7.18;54.07;101903.97;4891423;28;20242;-78
2023/03/17 02:20:34;;;;;;;9.15;3.80;;;;;;;7.12;54.31;101904.31;4931958;28;20078;-80
2023/03/17 02:23:07;;;;;;;9.02;4.28;;;;;;;7.14;54.48;101905.09;4903165;28;20265;-80
2023/03/17 02:25:46;;;;;;;7.25;4.22;;;;;;;7.21;54.34;101914.38;4944769;28;20245;-79
2023/03/17 02:28:27;;;;;;;8.02;3.83;;;;;;;7.16;53.90;101898.78;4934364;28;20054;-78
2023/03/17 02:30:57;;;;;;;8.70;4.07;;;;;;;7.16;54.37;101898.78;4924302;28;20140;-79
2023/03/17 02:33:26;;;;;;;9.50;4.25;;;;;;;7.15;54.41;101901.50;4938207;28;20143;-80
2023/03/17 02:36:02;;;;;;;6.63;4.10;;;;;;;6.67;53.70;101821.34;4937595;28;20198;-80
2023/03/17 02:38:41;;;;;;;5.35;3.80;;;;;;;7.08;53.58;101916.81;4946410;28;20293;-80
2023/03/17 02:41:15;;;;;;;7.55;4.20;;;;;;;6.97;53.95;101909.47;4922363;28;20458;-80
2023/03/17 02:43:42;;;;;;;6.32;3.92;;;;;;;6.97;54.29;101898.06;4931446;28;20492;-80
2023/03/17 02:46:09;;;;;;;8.57;3.45;;;;;;;6.88;54.64;101882.72;4934964;28;20703;-80
2023/03/17 02:48:38;;;;;;;5.47;3.95;;;;;;;7.07;55.16;101905.41;4942543;28;20049;-80
2023/03/17 02:51:09;;;;;;;5.97;3.50;;;;;;;7.16;55.15;101911.13;4920013;28;20252;-80
2023/03/17 02:53:39;;;;;;;4.78;3.42;;;;;;;6.79;54.85;101847.09;4949480;28;20064;-80
2023/03/17 02:56:14;;;;;;;5.43;3.70;;;;;;;7.14;55.42;101915.66;4948698;28;20078;-79
2023/03/17 02:58:48;;;;;;;4.57;3.10;;;;;;;7.05;55.20;101902.00;4933560;28;20315;-78
2023/03/17 03:01:19;;;;;;;7.95;3.92;;;;;;;7.03;55.43;101906.50;4938324;28;20054;-78
2023/03/17 03:03:48;;;;;;;7.10;4.10;;;;;;;6.96;55.25;101897.19;4935978;28;20531;-80
2023/03/17 03:06:15;;;;;;;5.88;3.95;;;;;;;6.59;55.21;101846.34;4932013;28;20046;-80
2023/03/17 03:08:42;;;;;;;26.13;5.72;;;;;;;6.91;55.25;101920.34;4912895;28;20050;-79
2023/03/17 03:11:11;;;;;;;9.32;4.35;;;;;;;6.81;55.21;101904.13;4909916;28;20053;-78
2023/03/17 03:13:43;;;;;;;12.88;3.97;;;;;;;6.44;55.62;101862.97;4905830;28;20076;-80
2023/03/17 03:16:28;;;;;;;7.80;3.30;;;;;;;6.67;55.13;101914.56;4894978;28;20346;-80
2023/03/17 03:18:59;;;;;;;9.02;4.10;;;;;;;6.77;56.00;101917.56;4927796;28;20046;-80
2023/03/17 03:21:31;;;;;;;9.82;3.95;;;;;;;7.15;60.21;101920.84;4939341;28;20055;-80
2023/03/17 03:24:07;;;;;;;16.52;3.45;;;;;;;7.52;59.26;101910.06;4945133;28;20175;-79
2023/03/17 03:26:38;;;;;;;10.90;3.33;;;;;;;7.35;59.57;101824.66;4948319;28;20054;-79
2023/03/17 03:29:15;;;;;;;9.90;2.70;;;;;;;7.81;55.13;101885.47;4956043;28;20396;-79
2023/03/17 03:31:47;;;;;;;9.20;3.17;;;;;;;7.60;57.24;101828.56;4939302;28;20062;-79
2023/03/17 03:34:14;;;;;;;8.30;3.03;;;;;;;8.11;55.04;101889.97;4937474;28;20408;-79
2023/03/17 03:36:41;;;;;;;5.55;3.00;;;;;;;7.99;52.36;101910.03;4927838;28;20481;-77
2023/03/17 03:39:13;;;;;;;4.20;2.53;;;;;;;7.77;52.72;101912.19;4910302;28;20133;-79
2023/03/17 03:41:42;;;;;;;6.03;2.70;;;;;;;7.63;52.41;101928.81;4930318;28;20054;-79
2023/03/17 03:44:09;;;;;;;5.57;2.70;;;;;;;7.39;53.09;101920.47;4935505;28;20049;-78
2023/03/17 03:46:43;;;;;;;7.13;3.08;;;;;;;6.79;52.80;101847.94;4923853;28;20957;-78
2023/03/17 03:49:14;;;;;;;7.70;2.83;;;;;;;6.90;53.49;101907.25;4910927;28;20274;-79
2023/03/17 03:51:47;;;;;;;10.48;3.33;;;;;;;6.87;53.50;101913.53;4930365;28;20046;-80
2023/03/17 03:54:21;;;;;;;4.15;2.72;;;;;;;6.58;54.57;101876.31;4955238;28;20194;-79
2023/03/17 03:56:55;;;;;;;3.45;2.70;;;;;;;6.84;54.42;101903.13;4938736;28;20046;-79
2023/03/17 03:59:29;;;;;;;4.85;2.25;;;;;;;6.89;55.03;101921.34;4908821;28;20821;-78
2023/03/17 04:02:03;;;;;;;4.07;2.65;;;;;;;6.63;55.13;101887.47;4946115;28;20053;-78
2023/03/17 04:04:30;;;;;;;4.72;3.05;;;;;;;6.82;55.15;101926.09;4937871;28;20062;-79
2023/03/17 04:07:01;;;;;;;4.35;2.50;;;;;;;6.77;55.34;101913.16;4924519;28;20096;-78
2023/03/17 04:09:31;;;;;;;5.32;2.50;;;;;;;6.74;55.88;101923.00;4958989;28;20325;-79
2023/03/17 04:12:02;;;;;;;4.53;3.17;;;;;;;6.73;55.84;101924.81;4950853;28;20088;-78
2023/03/17 04:14:29;;;;;;;2.67;2.13;;;;;;;6.85;55.85;101936.53;4961878;28;20082;-78
2023/03/17 04:16:56;;;;;;;5.43;2.75;;;;;;;6.55;55.78;101889.69;4938983;28;20050;-79
2023/03/17 04:19:22;;;;;;;6.30;3.30;;;;;;;6.77;55.86;101934.28;4946231;28;20109;-78
2023/03/17 04:21:50;;;;;;;4.40;3.00;;;;;;;6.64;55.65;101927.91;4945596;28;20039;-79
2023/03/17 04:24:22;;;;;;;9.10;3.42;;;;;;;6.52;56.07;101932.03;4941106;28;20097;-80
2023/03/17 04:26:53;;;;;;;10.30;3.10;;;;;;;6.32;56.74;101914.56;4926398;28;20436;-78
2023/03/17 04:29:24;;;;;;;7.18;3.45;;;;;;;6.47;55.93;101941.97;4920202;28;20054;-79
2023/03/17 04:31:58;;;;;;;5.55;2.97;;;;;;;6.42;56.06;101933.44;4926271;28;20046;-79
2023/03/17 04:34:29;;;;;;;8.35;3.20;;;;;;;6.36;55.91;101923.16;4936688;28;20293;-79
2023/03/17 04:37:03;;;;;;;5.93;3.35;;;;;;;6.33;55.22;101912.78;4943340;28;20484;-79
2023/03/17 04:39:29;;;;;;;5.80;2.70;;;;;;;6.54;55.01;101943.34;4933299;28;20101;-79
2023/03/17 04:42:01;;;;;;;4.25;3.38;;;;;;;6.49;54.20;101912.88;4944878;28;20142;-79
2023/03/17 04:44:33;;;;;;;4.95;3.92;;;;;;;6.63;54.71;101945.53;4941508;28;20489;-78
2023/03/17 04:47:00;;;;;;;5.43;3.60;;;;;;;6.46;54.77;101884.88;4945214;28;20318;-79
2023/03/17 04:49:30;;;;;;;6.85;3.20;;;;;;;6.33;53.98;101854.75;4936632;28;20077;-80
2023/03/17 04:52:05;;;;;;;7.43;3.97;;;;;;;6.93;56.04;101936.97;4942071;28;20054;-80
2023/03/17 04:54:32;;;;;;;14.95;3.95;;;;;;;7.02;54.75;101933.84;4925897;28;20467;-81
2023/03/17 04:57:03;;;;;;;14.55;4.20;;;;;;;7.18;56.77;101906.59;4954717;28;20497;-79
2023/03/17 04:59:33;;;;;;;7.63;3.83;;;;;;;7.26;55.37;101896.50;4944445;28;20134;-79
2023/03/17 05:01:59;;;;;;;8.15;4.18;;;;;;;7.57;55.32;101902.72;4935943;28;20062;-80
2023/03/17 05:04:31;;;;;;;15.27;4.82;;;;;;;7.39;53.72;101900.16;4938596;28;20078;-80
2023/03/17 05:07:14;;;;;;;10.35;5.38;;;;;;;6.78;53.58;101829.56;4937874;28;20089;-81
2023/03/17 05:09:41;;;;;;;9.27;6.00;;;;;;;7.10;53.71;101909.66;4943716;28;20440;-79
2023/03/17 05:12:08;;;;;;;11.80;5.00;;;;;;;7.06;54.94;101916.91;4960697;28;20299;-79
2023/03/17 05:14:36;;;;;;;9.25;5.47;;;;;;;6.96;55.02;101934.16;4957734;28;20054;-77
2023/03/17 05:17:15;;;;;;;8.40;6.05;;;;;;;6.54;54.94;101900.28;4954658;28;20547;-78
2023/03/17 05:19:48;;;;;;;9.90;6.88;;;;;;;6.32;55.77;101905.81;4935548;28;20070;-79
2023/03/17 05:22:15;;;;;;;13.77;7.88;;;;;;;6.40;56.38;101940.56;4940450;28;20050;-77
2023/03/17 05:24:42;;;;;;;12.95;9.38;;;;;;;6.28;56.80;101926.19;4945480;28;20054;-78
2023/03/17 05:27:21;;;;;;;18.90;11.20;;;;;;;6.22;57.63;101937.06;4952793;28;20066;-79
2023/03/17 05:29:52;;;;;;;18.15;11.55;;;;;;;6.06;58.23;101931.66;4961896;28;20073;-78
2023/03/17 05:32:22;;;;;;;14.57;11.50;;;;;;;6.10;58.27;101933.25;4944560;28;20074;-79
2023/03/17 05:34:49;;;;;;;17.23;12.15;;;;;;;6.05;58.58;101932.63;4931997;28;20042;-76
2023/03/17 05:37:29;;;;;;;17.10;11.85;;;;;;;5.91;59.06;101898.13;4935417;28;20072;-79
2023/03/17 05:39:58;;;;;;;19.17;11.32;;;;;;;6.03;59.77;101910.75;4942392;28;20058;-76
2023/03/17 05:42:28;;;;;;;16.15;10.35;;;;;;;6.26;58.92;101933.31;4937817;28;20136;-79
2023/03/17 05:45:04;;;;;;;15.02;10.57;;;;;;;6.25;59.13;101938.69;4926432;28;20428;-78
2023/03/17 05:47:36;;;;;;;;;;;;;;;6.20;59.93;101939.75;4927381;28;20062;-78
2023/03/17 05:50:04;;;;;;;19.75;10.52;;;;;;;6.26;59.11;101933.31;4957357;28;20041;-79
2023/03/17 05:52:31;;;;;;;15.20;9.48;;;;;;;6.46;58.27;101942.03;4923386;28;20057;-78
2023/03/17 05:55:02;;;;;;;18.75;9.93;;;;;;;6.15;57.85;101862.66;4951190;28;20061;-80
2023/03/17 05:57:44;;;;;;;16.20;8.88;;;;;;;6.53;57.25;101920.56;4939618;28;20043;-79
2023/03/17 06:00:15;;;;;;;15.75;8.02;;;;;;;6.81;58.52;101932.31;4941210;28;20501;-78
2023/03/17 06:02:45;;;;;;;22.00;11.93;;;;;;;6.56;56.25;101882.59;4943375;28;20093;-79
2023/03/17 06:05:13;;;;;;;12.77;9.10;;;;;;;6.83;56.21;101943.66;4947007;28;20539;-80
2023/03/17 06:07:40;;;;;;;20.17;10.90;;;;;;;6.36;56.73;101858.09;4948493;28;20047;-80
2023/03/17 06:10:22;;;;;;;17.45;9.98;;;;;;;6.81;57.28;101924.41;4948060;28;20246;-80
2023/03/17 06:12:50;;;;;;;14.15;10.20;;;;;;;6.87;57.13;101918.81;4936744;28;20105;-77
2023/03/17 06:15:18;;;;;;;13.27;9.70;;;;;;;6.37;56.40;101836.06;4943704;28;20541;-78
2023/03/17 06:17:50;;;;;;;14.13;10.07;;;;;;;6.76;56.46;101915.88;4930104;28;20059;-79
2023/03/17 06:20:21;;;;;;;11.85;8.95;;;;;;;6.74;56.60;101917.72;4934342;28;20320;-78
2023/03/17 06:22:51;;;;;;;13.13;8.35;;;;;;;6.55;56.21;101879.13;4940129;28;20132;-78
2023/03/17 06:25:36;;;;;;;11.30;8.95;;;;;;;6.48;56.23;101866.31;4928662;28;20046;-79
2023/03/17 06:28:11;;;;;;;17.67;9.40;;;;;;;6.93;56.52;101926.41;4951467;28;20412;-80
2023/03/17 06:30:46;;;;;;;10.80;8.18;;;;;;;6.68;56.26;101874.06;4934185;28;20065;-78
2023/03/17 06:33:18;;;;;;;10.45;8.15;;;;;;;7.14;56.23;101923.56;4930876;28;20095;-79
2023/03/17 06:35:53;;;;;;;14.50;9.40;;;;;;;7.22;56.01;101918.72;4926755;28;20284;-79
2023/03/17 06:38:21;;;;;;;9.57;7.05;;;;;;;7.45;57.52;101935.97;4949315;28;20141;-79
2023/03/17 06:40:50;;;;;;;14.63;9.43;;;;;;;7.66;56.61;101933.94;4951810;28;20378;-80
2023/03/17 06:43:18;;;;;;;13.50;9.38;;;;;;;7.33;55.91;101852.97;4910321;28;20385;-78
2023/03/17 06:45:45;;;;;;;15.52;10.07;;;;;;;7.79;55.98;101905.00;4906866;28;20463;-78
2023/03/17 06:48:27;;;;;;;15.82;10.30;;;;;;;7.75;54.70;101906.16;4896304;28;20051;-80
2023/03/17 06:50:56;;;;;;;12.25;10.07;;;;;;;7.91;54.95;101941.34;4941209;28;20057;-79
2023/03/17 06:53:23;;;;;;;16.27;10.93;;;;;;;7.87;54.88;101947.75;4935969;28;20813;-78
2023/03/17 06:55:50;;;;;;;18.25;10.63;;;;;;;7.88;55.57;101934.44;4941669;28;20376;-79
2023/03/17 06:58:19;;;;;;;13.43;10.18;;;;;;;8.04;55.27;101941.53;4936144;28;20046;-78
2023/03/17 07:00:47;;;;;;;13.93;8.48;;;;;;;7.96;56.69;101893.47;4933285;28;20500;-79
2023/03/17 07:03:24;;;;;;;13.20;9.30;;;;;;;8.46;54.22;101946.13;4913466;28;20066;-80
2023/03/17 07:05:57;;;;;;;14.68;9.98;;;;;;;8.47;54.19;101947.00;4910223;28;20513;-78
2023/03/17 07:08:23;;;;;;;11.82;8.63;;;;;;;8.52;54.36;101943.16;4874333;28;20303;-78
2023/03/17 07:10:54;;;;;;;11.60;8.70;;;;;;;8.63;54.49;101953.09;4914262;28;20128;-79
2023/03/17 07:13:22;;;;;;;15.95;8.35;;;;;;;8.54;54.18;101919.22;4928606;28;20562;-79
2023/03/17 07:15:52;;;;;;;13.43;9.75;;;;;;;8.75;52.51;101956.81;4936669;28;20057;-78
2023/03/17 07:18:21;;;;;;;12.95;9.55;;;;;;;8.70;52.68;101938.53;4934572;28;20313;-78
2023/03/17 07:20:53;;;;;;;12.98;9.75;;;;;;;8.55;53.05;101910.34;4917361;28;20046;-78
2023/03/17 07:23:28;;;;;;;12.07;8.93;;;;;;;8.50;52.97;101915.06;4924842;28;20051;-76
2023/03/17 07:25:56;;;;;;;9.30;6.95;;;;;;;9.09;56.59;101939.72;4959505;28;20129;-78
2023/03/17 07:28:34;;;;;;;10.10;6.88;;;;;;;8.60;51.63;101809.50;4925123;28;20120;-77
2023/03/17 07:31:01;;;;;;;8.48;6.28;;;;;;;9.32;51.00;101956.00;4904268;28;20154;-77
2023/03/17 07:33:42;;;;;;;10.32;6.78;;;;;;;9.35;50.81;101953.19;4927435;28;20515;-77
2023/03/17 07:36:09;;;;;;;9.55;7.85;;;;;;;9.27;50.60;101955.44;4930302;28;20047;-78
2023/03/17 07:38:45;;;;;;;8.27;7.28;;;;;;;9.25;52.92;101952.03;4918737;28;20054;-78
2023/03/17 07:41:23;;;;;;;9.02;6.65;;;;;;;9.68;53.54;101930.78;4883506;28;20671;-78
2023/03/17 07:43:57;;;;;;;12.23;7.20;;;;;;;9.60;50.01;101937.41;4892540;28;20472;-79
2023/03/17 07:46:37;;;;;;;10.25;6.28;;;;;;;9.76;50.21;101952.38;4883506;28;20250;-77
2023/03/17 07:49:08;;;;;;;8.50;6.82;;;;;;;9.73;49.49;101955.19;4882670;28;20120;-77
2023/03/17 07:51:35;;;;;;;7.90;5.80;;;;;;;9.24;49.73;101894.69;4920060;28;20056;-77
2023/03/17 07:54:12;;;;;;;10.43;6.50;;;;;;;9.46;49.67;101953.34;4890004;28;20749;-79
2023/03/17 07:56:41;;;;;;;8.15;6.55;;;;;;;9.31;49.51;101939.25;4910159;28;20470;-78
2023/03/17 07:59:14;;;;;;;7.93;6.95;;;;;;;9.37;50.43;101943.34;4916838;28;20354;-77
2023/03/17 08:01:57;;;;;;;14.20;8.52;;;;;;;9.13;50.06;101922.69;4928573;28;20050;-78
2023/03/17 08:04:26;;;;;;;8.45;5.85;;;;;;;9.40;52.16;101940.47;4936685;28;20277;-76
2023/03/17 08:06:56;;;;;;;11.75;8.18;;;;;;;8.68;51.17;101791.31;4925983;28;20050;-77
2023/03/17 08:09:24;;;;;;;14.57;8.40;;;;;;;9.43;50.30;101921.72;4906895;28;20105;-78
2023/03/17 08:11:52;;;;;;;17.55;8.45;;;;;;;9.59;50.33;101938.38;4916695;28;20475;-78
2023/03/17 08:14:24;;;;;;;7.70;5.85;;;;;;;10.08;53.57;101928.19;4934314;28;20072;-76
2023/03/17 08:17:10;;;;;;;7.22;5.32;;;;;;;10.30;51.54;101914.38;4935777;28;20777;-79
2023/03/17 08:19:49;;;;;;;9.07;5.97;;;;;;;10.12;49.25;101900.50;4941440;28;20065;-79
2023/03/17 08:22:24;;;;;;;10.07;4.68;;;;;;;10.75;52.34;101933.47;4923812;28;20103;-79
2023/03/17 08:24:58;;;;;;;7.32;4.72;;;;;;;10.72;49.41;101918.59;4946234;28;20477;-79
2023/03/17 08:27:31;;;;;;;7.72;4.78;;;;;;;10.83;48.38;101932.00;4936120;28;20078;-79
2023/03/17 08:30:03;;;;;;;6.70;4.15;;;;;;;10.88;48.34;101903.28;4946953;28;20340;-79
2023/03/17 08:32:31;;;;;;;7.32;4.25;;;;;;;10.82;51.35;101866.50;4963156;28;20271;-78
2023/03/17 08:35:22;;;;;;;8.05;4.57;;;;;;;11.39;51.65;101923.66;4937549;28;20424;-79
2023/03/17 08:37:53;;;;;;;6.88;3.80;;;;;;;11.41;47.17;101931.50;4923893;28;20423;-78
2023/03/17 08:40:26;;;;;;;4.68;3.92;;;;;;;11.59;50.54;101911.56;4937577;28;20406;-79
2023/03/17 08:43:02;;;;;;;6.95;4.10;;;;;;;12.23;50.37;101916.66;4920042;28;20066;-79
2023/03/17 08:45:40;;;;;;;5.35;3.78;;;;;;;12.17;47.53;101909.13;4940840;28;20540;-78
2023/03/17 08:48:07;;;;;;;6.88;3.95;;;;;;;12.04;47.88;101930.50;4946229;28;20245;-80
2023/03/17 08:50:35;;;;;;;4.65;3.47;;;;;;;12.11;46.51;101931.75;4940121;28;20077;-78
2023/03/17 08:53:02;;;;;;;5.35;3.80;;;;;;;11.49;49.17;101828.13;4954921;28;20395;-74
2023/03/17 08:55:31;;;;;;;8.35;3.50;;;;;;;11.70;45.27;101849.59;4917384;28;20448;-78
2023/03/17 08:58:00;;;;;;;6.47;3.45;;;;;;;12.38;46.78;101934.16;4902270;28;20443;-79
2023/03/17 09:00:27;;;;;;;5.30;3.17;;;;;;;12.36;48.46;101935.22;4925148;28;20452;-78
2023/03/17 09:03:10;;;;;;;3.58;2.70;;;;;;;12.54;48.55;101939.16;4920596;28;20464;-78
2023/03/17 09:05:37;;;;;;;4.57;2.70;;;;;;;12.42;47.58;101870.00;4961591;28;20058;-79
2023/03/17 09:08:11;;;;;;;4.70;3.25;;;;;;;12.77;47.27;101916.09;4914189;28;20435;-79
2023/03/17 09:10:38;;;;;;;5.22;2.92;;;;;;;12.96;47.08;101918.19;4946577;28;20057;-79
2023/03/17 09:13:13;;;;;;;7.07;2.17;;;;;;;13.01;46.43;101865.34;4904448;28;20046;-79
2023/03/17 09:15:45;;;;;;;2.53;2.20;;;;;;;13.27;46.26;101926.44;4918632;28;20663;-78
2023/03/17 09:18:13;;;;;;;6.55;2.92;;;;;;;13.21;46.63;101905.56;4930009;28;20065;-80
2023/03/17 09:20:40;;;;;;;3.42;2.20;;;;;;;13.41;46.28;101933.34;4935862;28;20402;-79
2023/03/17 09:23:11;;;;;;;3.80;2.33;;;;;;;13.56;45.77;101920.59;4918582;28;20057;-78
2023/03/17 09:25:43;;;;;;;6.50;2.38;;;;;;;13.33;45.57;101893.97;4933312;28;20052;-79
2023/03/17 09:28:10;;;;;;;3.08;2.45;;;;;;;12.38;45.90;101691.81;4950147;28;20803;-80
2023/03/17 09:30:46;;;;;;;4.28;2.80;;;;;;;13.90;45.18;101919.53;4909260;28;20257;-79
2023/03/17 09:33:16;;;;;;;4.38;2.08;;;;;;;13.32;45.37;101894.91;4907569;28;20051;-78
2023/03/17 09:35:51;;;;;;;1.95;1.65;;;;;;;13.97;45.46;101914.56;4916858;28;20043;-79
2023/03/17 09:38:25;;;;;;;1.83;1.67;;;;;;;13.94;45.38;101901.47;4901542;28;20303;-79
2023/03/17 09:41:18;;;;;;;1.98;1.85;;;;;;;13.49;45.77;101850.03;4920704;28;20054;-80
2023/03/17 09:44:42;;;;;;;3.67;2.30;;;;;;;13.53;45.71;101854.16;4916317;28;20406;-78
2023/03/17 09:47:39;;;;;;;3.67;2.15;;;;;;;13.86;44.67;101886.09;4878434;29;20052;-80
2023/03/17 09:50:22;;;;;;;4.13;2.40;;;;;;;13.90;43.92;101908.03;4829354;29;20048;-79
2023/03/17 09:53:00;;;;;;;3.45;2.15;;;;;;;13.85;44.19;101868.34;4940348;28;20046;-80
2023/03/17 09:55:34;;;;;;;7.70;2.60;;;;;;;14.14;43.83;101875.75;4949853;28;20046;-78
2023/03/17 09:58:03;;;;;;;2.60;2.05;;;;;;;13.60;44.98;101783.31;4938189;28;20477;-79
2023/03/17 10:00:35;;;;;;;3.35;2.83;;;;;;;14.31;44.62;101895.72;4935680;28;20368;-80
2023/03/17 10:03:02;;;;;;;3.45;2.42;;;;;;;14.49;44.80;101893.31;4938821;28;20152;-79
2023/03/17 10:05:38;;;;;;;2.40;2.20;;;;;;;14.29;44.19;101849.59;4899536;28;20061;-78
2023/03/17 10:08:05;;;;;;;3.08;2.45;;;;;;;14.56;44.54;101894.50;4927231;28;20054;-78
2023/03/17 10:11:14;;;;;;;4.82;2.88;;;;;;;14.38;44.19;101843.47;4909446;28;20054;-79
2023/03/17 10:14:02;;;;;;;4.32;2.67;;;;;;;14.79;44.15;101883.69;4923196;28;20094;-78
2023/03/17 10:16:41;;;;;;;3.47;2.78;;;;;;;14.44;42.18;101895.53;4933903;28;20416;-79
2023/03/17 10:19:53;;;;;;;3.90;2.65;;;;;;;14.71;43.78;101887.03;4928997;28;20444;-78
2023/03/17 10:23:00;;;;;;;4.28;2.67;;;;;;;14.54;44.12;101883.13;4890312;29;20051;-79
2023/03/17 10:25:36;;;;;;;3.47;2.90;;;;;;;14.52;43.68;101861.00;4864770;29;20233;-80
2023/03/17 10:28:33;;;;;;;3.83;2.40;;;;;;;14.99;43.33;101882.78;4858621;29;20062;-79
2023/03/17 10:31:26;;;;;;;4.35;2.47;;;;;;;14.88;43.61;101875.72;4886320;28;20462;-78
2023/03/17 10:33:59;;;;;;;6.45;3.28;;;;;;;14.68;42.59;101871.22;4888149;28;20255;-79
2023/03/17 10:36:36;;;;;;;6.10;2.90;;;;;;;14.87;43.37;101884.69;4898878;28;20524;-79
2023/03/17 10:39:11;;;;;;;2.95;2.38;;;;;;;15.07;43.09;101861.59;4893493;29;20054;-79
2023/03/17 10:42:08;;;;;;;3.92;2.88;;;;;;;15.06;41.99;101875.09;4867913;29;20505;-80
2023/03/17 10:44:57;;;;;;;4.72;2.65;;;;;;;15.13;42.92;101874.41;4854288;29;20302;-77
2023/03/17 10:47:33;;;;;;;5.10;3.38;;;;;;;14.71;42.88;101829.06;4893165;29;20055;-80
2023/03/17 10:50:14;;;;;;;7.43;2.90;;;;;;;15.09;43.28;101864.94;4898599;28;20569;-79
2023/03/17 10:52:46;;;;;;;5.10;4.20;;;;;;;14.68;42.09;101828.47;4920824;28;20351;-78
2023/03/17 10:55:20;;;;;;;4.35;3.20;;;;;;;14.76;43.09;101852.72;4935237;28;20318;-77
2023/03/17 10:58:18;;;;;;;6.30;3.00;;;;;;;15.20;43.47;101844.44;4919127;28;20053;-81
2023/03/17 11:01:04;;;;;;;3.90;3.45;;;;;;;15.16;42.33;101866.09;4926369;28;20058;-79
2023/03/17 11:03:50;;;;;;;4.90;3.10;;;;;;;15.33;42.51;101871.78;4923788;28;20379;-80
2023/03/17 11:06:40;;;;;;;7.72;3.47;;;;;;;15.45;42.46;101868.00;4934770;28;20042;-81
2023/03/17 11:09:20;;;;;;;5.78;2.90;;;;;;;15.18;43.03;101824.00;4905188;28;20282;-81
2023/03/17 11:11:49;;;;;;;6.65;3.15;;;;;;;14.96;42.50;101779.63;4919738;28;20059;-80
2023/03/17 11:14:34;;;;;;;3.65;3.33;;;;;;;15.31;42.49;101847.00;4872731;28;20278;-80
2023/03/17 11:17:32;;;;;;;7.53;4.18;;;;;;;15.35;41.58;101854.63;4906373;28;20062;-80
2023/03/17 11:20:19;;;;;;;4.27;2.77;;;;;;;15.59;41.96;101862.28;4922005;28;20047;-78
2023/03/17 11:23:06;;;;;;;7.25;4.05;;;;;;;15.73;42.12;101836.97;4873950;28;20122;-80
2023/03/17 11:25:43;;;;;;;9.80;4.78;;;;;;;15.55;41.75;101823.38;4930428;28;20066;-78
2023/03/17 11:28:15;;;;;;;5.40;4.50;;;;;;;15.59;42.08;101829.31;4955109;28;20084;-79
2023/03/17 11:31:08;;;;;;;4.90;4.07;;;;;;;15.34;41.80;101761.09;4928035;28;20076;-80
2023/03/17 11:33:39;;;;;;;4.93;4.35;;;;;;;15.65;41.44;101854.66;4918192;28;20343;-80
2023/03/17 11:36:32;;;;;;;3.85;3.45;;;;;;;15.78;41.65;101840.06;4952286;28;20447;-80
2023/03/17 11:39:11;;;;;;;4.88;3.90;;;;;;;15.50;42.17;101811.41;4883656;28;20047;-79
2023/03/17 11:42:17;;;;;;;8.38;4.32;;;;;;;15.50;41.41;101772.09;4953221;28;20477;-79
2023/03/17 11:45:10;;;;;;;6.13;3.97;;;;;;;15.81;41.37;101830.91;4897923;28;20047;-79
2023/03/17 11:48:17;;;;;;;6.82;4.22;;;;;;;15.47;41.62;101767.03;4892398;28;20707;-78
2023/03/17 11:51:19;;;;;;;3.92;3.45;;;;;;;15.90;41.50;101795.25;4920049;28;20385;-81
2023/03/17 11:54:01;;;;;;;;;;;;;;;15.67;41.29;101821.41;4921721;28;20296;-80
2023/03/17 11:56:51;;;;;;;6.07;4.90;;;;;;;15.52;40.09;101812.97;4937875;28;20160;-78
2023/03/17 11:59:51;;;;;;;5.05;3.90;;;;;;;15.83;40.94;101788.78;4931150;28;20401;-80
2023/03/17 12:02:39;;;;;;;4.38;3.40;;;;;;;15.90;42.01;101800.59;4915157;28;20481;-80
2023/03/17 12:05:19;;;;;;;4.53;4.00;;;;;;;15.71;41.96;101797.94;4933362;28;20058;-81